sensor_id;sensor_type;location;lat;lon;timestamp;pressure;altitude;pressure_sealevel;temperature;humidity
58467;BME280;44255;49.244;7.726;2023-02-21T04:31:53;98795.28;;;0.24;52.10
58467;BME280;44255;49.244;7.726;2023-02-21T04:34:20;98806.16;;;0.10;52.13
58467;BME280;44255;49.244;7.726;2023-02-21T04:36:45;98804.38;;;0.11;52.24
58467;BME280;44255;49.244;7.726;2023-02-21T04:39:10;98802.66;;;0.08;52.62
58467;BME280;44255;49.244;7.726;2023-02-21T04:41:36;98803.72;;;-0.00;52.59
58467;BME280;44255;49.244;7.726;2023-02-21T04:44:02;98805.97;;;0.20;52.04
58467;BME280;44255;49.244;7.726;2023-02-21T04:46:27;98809.66;;;0.11;51.78
58467;BME280;44255;49.244;7.726;2023-02-21T04:48:52;98802.53;;;0.15;51.86
58467;BME280;44255;49.244;7.726;2023-02-21T04:51:21;98811.41;;;0.14;51.94
58467;BME280;44255;49.244;7.726;2023-02-21T04:53:47;98808.81;;;0.09;52.09
58467;BME280;44255;49.244;7.726;2023-02-21T04:56:13;98795.50;;;0.14;52.04
58467;BME280;44255;49.244;7.726;2023-02-21T04:58:38;98802.66;;;0.08;51.98
58467;BME280;44255;49.244;7.726;2023-02-21T05:01:05;98802.53;;;0.16;52.25
58467;BME280;44255;49.244;7.726;2023-02-21T05:03:30;98805.09;;;0.19;51.89
58467;BME280;44255;49.244;7.726;2023-02-21T05:05:55;98800.66;;;0.20;51.45
58467;BME280;44255;49.244;7.726;2023-02-21T05:08:20;98807.94;;;0.10;52.03
58467;BME280;44255;49.244;7.726;2023-02-21T05:10:46;98804.34;;;0.13;52.40
58467;BME280;44255;49.244;7.726;2023-02-21T05:13:12;98788.59;;;0.06;51.89
58467;BME280;44255;49.244;7.726;2023-02-21T05:15:37;98795.84;;;-0.05;51.94
58467;BME280;44255;49.244;7.726;2023-02-21T05:18:03;98794.88;;;-0.01;52.24
58467;BME280;44255;49.244;7.726;2023-02-21T05:20:28;98788.50;;;0.09;51.79
58467;BME280;44255;49.244;7.726;2023-02-21T05:22:53;98789.72;;;-0.07;52.31
58467;BME280;44255;49.244;7.726;2023-02-21T05:25:20;98788.72;;;-0.01;51.81
58467;BME280;44255;49.244;7.726;2023-02-21T05:27:46;98783.53;;;-0.08;52.48
58467;BME280;44255;49.244;7.726;2023-02-21T05:30:14;98785.63;;;-0.25;52.59
58467;BME280;44255;49.244;7.726;2023-02-21T05:32:39;98781.94;;;-0.17;52.61
58467;BME280;44255;49.244;7.726;2023-02-21T05:35:05;98779.28;;;-0.17;52.25
58467;BME280;44255;49.244;7.726;2023-02-21T05:37:31;98778.28;;;-0.09;52.47
58467;BME280;44255;49.244;7.726;2023-02-21T05:39:56;98783.66;;;-0.15;52.02
58467;BME280;44255;49.244;7.726;2023-02-21T05:42:21;98783.63;;;-0.12;52.29
58467;BME280;44255;49.244;7.726;2023-02-21T05:44:46;98782.69;;;-0.10;52.38
58467;BME280;44255;49.244;7.726;2023-02-21T05:47:13;98783.44;;;-0.01;51.68
58467;BME280;44255;49.244;7.726;2023-02-21T05:49:39;98793.19;;;-0.04;51.67
58467;BME280;44255;49.244;7.726;2023-02-21T05:52:05;98777.31;;;-0.05;51.43
58467;BME280;44255;49.244;7.726;2023-02-21T05:54:30;98781.75;;;-0.07;51.60
58467;BME280;44255;49.244;7.726;2023-02-21T05:56:55;98783.50;;;-0.06;51.29
58467;BME280;44255;49.244;7.726;2023-02-21T05:59:21;98771.25;;;-0.12;51.82
58467;BME280;44255;49.244;7.726;2023-02-21T06:01:46;98781.84;;;-0.12;52.32
58467;BME280;44255;49.244;7.726;2023-02-21T06:04:12;98776.63;;;-0.17;51.72
58467;BME280;44255;49.244;7.726;2023-02-21T06:06:37;98772.31;;;-0.22;52.01
58467;BME280;44255;49.244;7.726;2023-02-21T06:09:03;98783.72;;;-0.19;51.87
58467;BME280;44255;49.244;7.726;2023-02-21T06:11:31;98778.78;;;-0.36;52.43
58467;BME280;44255;49.244;7.726;2023-02-21T06:13:59;98772.69;;;-0.42;52.72
58467;BME280;44255;49.244;7.726;2023-02-21T06:16:25;98778.97;;;-0.47;53.04
58467;BME280;44255;49.244;7.726;2023-02-21T06:18:51;98767.16;;;-0.28;52.49
58467;BME280;44255;49.244;7.726;2023-02-21T06:21:17;98776.84;;;-0.27;52.21
58467;BME280;44255;49.244;7.726;2023-02-21T06:23:42;98773.31;;;-0.28;52.11
58467;BME280;44255;49.244;7.726;2023-02-21T06:26:07;98775.09;;;-0.30;52.75
58467;BME280;44255;49.244;7.726;2023-02-21T06:28:33;98782.97;;;-0.24;52.09
58467;BME280;44255;49.244;7.726;2023-02-21T06:30:58;98775.00;;;-0.24;52.49
58467;BME280;44255;49.244;7.726;2023-02-21T06:33:23;98780.22;;;-0.19;52.31
58467;BME280;44255;49.244;7.726;2023-02-21T06:35:48;98781.91;;;-0.15;51.71
58467;BME280;44255;49.244;7.726;2023-02-21T06:38:14;98778.44;;;-0.19;50.91
58467;BME280;44255;49.244;7.726;2023-02-21T06:40:39;98783.94;;;-0.31;51.43
58467;BME280;44255;49.244;7.726;2023-02-21T06:43:04;98784.06;;;-0.37;51.64
58467;BME280;44255;49.244;7.726;2023-02-21T06:45:30;98777.94;;;-0.39;52.24
58467;BME280;44255;49.244;7.726;2023-02-21T06:47:55;98785.75;;;-0.33;52.46
58467;BME280;44255;49.244;7.726;2023-02-21T06:50:20;98787.63;;;-0.37;52.47
58467;BME280;44255;49.244;7.726;2023-02-21T06:52:45;98785.75;;;-0.33;52.52
58467;BME280;44255;49.244;7.726;2023-02-21T06:55:11;98786.00;;;-0.46;52.66
58467;BME280;44255;49.244;7.726;2023-02-21T06:57:36;98788.41;;;-0.32;52.59
58467;BME280;44255;49.244;7.726;2023-02-21T07:00:02;98781.50;;;-0.40;52.53
58467;BME280;44255;49.244;7.726;2023-02-21T07:02:28;98783.03;;;-0.28;52.42
58467;BME280;44255;49.244;7.726;2023-02-21T07:04:53;98788.06;;;-0.14;51.83
58467;BME280;44255;49.244;7.726;2023-02-21T07:07:18;98791.59;;;-0.14;51.67
58467;BME280;44255;49.244;7.726;2023-02-21T07:09:43;98790.84;;;-0.22;52.74
58467;BME280;44255;49.244;7.726;2023-02-21T07:12:09;98796.06;;;-0.16;52.73
58467;BME280;44255;49.244;7.726;2023-02-21T07:14:34;98785.06;;;0.04;52.35
58467;BME280;44255;49.244;7.726;2023-02-21T07:16:59;98790.47;;;-0.00;52.55
58467;BME280;44255;49.244;7.726;2023-02-21T07:19:24;98790.53;;;-0.04;52.65
58467;BME280;44255;49.244;7.726;2023-02-21T07:21:50;98786.50;;;0.21;51.88
58467;BME280;44255;49.244;7.726;2023-02-21T07:24:15;98786.63;;;0.16;51.81
58467;BME280;44255;49.244;7.726;2023-02-21T07:26:40;98787.47;;;0.18;51.84
58467;BME280;44255;49.244;7.726;2023-02-21T07:29:06;98790.06;;;0.20;52.67
58467;BME280;44255;49.244;7.726;2023-02-21T07:31:31;98793.31;;;0.34;52.61
58467;BME280;44255;49.244;7.726;2023-02-21T07:33:57;98793.22;;;0.37;52.32
58467;BME280;44255;49.244;7.726;2023-02-21T07:36:22;98796.69;;;0.43;52.40
58467;BME280;44255;49.244;7.726;2023-02-21T07:38:48;98792.22;;;0.45;52.98
58467;BME280;44255;49.244;7.726;2023-02-21T07:41:14;98794.66;;;0.57;52.08
58467;BME280;44255;49.244;7.726;2023-02-21T07:43:40;98794.44;;;0.66;52.19
58467;BME280;44255;49.244;7.726;2023-02-21T07:46:09;98791.84;;;0.63;52.32
58467;BME280;44255;49.244;7.726;2023-02-21T07:48:35;98789.28;;;0.59;52.27
58467;BME280;44255;49.244;7.726;2023-02-21T07:51:00;98791.91;;;0.60;52.54
58467;BME280;44255;49.244;7.726;2023-02-21T07:53:26;98785.38;;;0.77;52.47
58467;BME280;44255;49.244;7.726;2023-02-21T07:55:51;98786.06;;;0.85;52.86
58467;BME280;44255;49.244;7.726;2023-02-21T07:58:16;98795.41;;;1.02;53.15
58467;BME280;44255;49.244;7.726;2023-02-21T08:00:41;98788.59;;;1.28;52.97
58467;BME280;44255;49.244;7.726;2023-02-21T08:03:10;98782.22;;;1.35;53.27
58467;BME280;44255;49.244;7.726;2023-02-21T08:05:36;98780.13;;;1.48;52.53
58467;BME280;44255;49.244;7.726;2023-02-21T08:08:01;98777.22;;;1.59;52.59
58467;BME280;44255;49.244;7.726;2023-02-21T08:10:27;98774.59;;;1.57;52.94
58467;BME280;44255;49.244;7.726;2023-02-21T08:12:53;98772.63;;;1.64;52.58
58467;BME280;44255;49.244;7.726;2023-02-21T08:15:19;98767.88;;;1.75;51.78
58467;BME280;44255;49.244;7.726;2023-02-21T08:17:47;98775.41;;;1.94;51.88
58467;BME280;44255;49.244;7.726;2023-02-21T08:20:12;98776.34;;;1.91;52.04
58467;BME280;44255;49.244;7.726;2023-02-21T08:22:37;98763.44;;;2.09;51.79
58467;BME280;44255;49.244;7.726;2023-02-21T08:25:03;98765.00;;;2.16;52.22
58467;BME280;44255;49.244;7.726;2023-02-21T08:27:28;98770.66;;;2.35;52.42
58467;BME280;44255;49.244;7.726;2023-02-21T08:29:53;98761.81;;;2.35;52.93
58467;BME280;44255;49.244;7.726;2023-02-21T08:32:19;98762.16;;;2.54;51.97
58467;BME280;44255;49.244;7.726;2023-02-21T08:34:45;98763.88;;;2.57;52.12
58467;BME280;44255;49.244;7.726;2023-02-21T08:37:11;98769.81;;;2.65;52.26
58467;BME280;44255;49.244;7.726;2023-02-21T08:39:51;98764.94;;;2.79;51.95
58467;BME280;44255;49.244;7.726;2023-02-21T08:42:20;98763.78;;;2.88;52.57
58467;BME280;44255;49.244;7.726;2023-02-21T08:44:46;98761.69;;;2.98;53.07
58467;BME280;44255;49.244;7.726;2023-02-21T08:47:12;98757.75;;;3.10;53.42
58467;BME280;44255;49.244;7.726;2023-02-21T08:49:38;98761.06;;;3.18;54.03
58467;BME280;44255;49.244;7.726;2023-02-21T08:52:06;98757.22;;;3.27;53.81
58467;BME280;44255;49.244;7.726;2023-02-21T08:54:31;98753.28;;;3.39;53.50
58467;BME280;44255;49.244;7.726;2023-02-21T08:56:56;98753.72;;;3.52;53.41
58467;BME280;44255;49.244;7.726;2023-02-21T08:59:23;98756.22;;;3.57;53.29
58467;BME280;44255;49.244;7.726;2023-02-21T09:01:48;98757.84;;;3.61;53.55
58467;BME280;44255;49.244;7.726;2023-02-21T09:04:13;98754.19;;;3.65;53.55
58467;BME280;44255;49.244;7.726;2023-02-21T09:06:39;98750.31;;;3.74;55.13
58467;BME280;44255;49.244;7.726;2023-02-21T09:09:04;98747.31;;;3.83;54.33
58467;BME280;44255;49.244;7.726;2023-02-21T09:11:29;98742.41;;;3.96;54.17
58467;BME280;44255;49.244;7.726;2023-02-21T09:13:54;98743.16;;;4.01;54.83
58467;BME280;44255;49.244;7.726;2023-02-21T09:16:20;98739.31;;;4.08;54.75
58467;BME280;44255;49.244;7.726;2023-02-21T09:19:12;98743.28;;;4.22;55.07
58467;BME280;44255;49.244;7.726;2023-02-21T09:21:37;98739.56;;;4.26;54.74
58467;BME280;44255;49.244;7.726;2023-02-21T09:24:09;98739.31;;;4.32;55.31
58467;BME280;44255;49.244;7.726;2023-02-21T09:26:35;98742.16;;;4.51;55.34
58467;BME280;44255;49.244;7.726;2023-02-21T09:29:00;98742.75;;;4.60;54.95
58467;BME280;44255;49.244;7.726;2023-02-21T09:31:25;98734.25;;;4.72;54.98
58467;BME280;44255;49.244;7.726;2023-02-21T09:33:51;98728.81;;;4.75;56.84
58467;BME280;44255;49.244;7.726;2023-02-21T09:36:16;98737.09;;;4.90;55.93
58467;BME280;44255;49.244;7.726;2023-02-21T09:38:47;98727.31;;;4.90;55.53
58467;BME280;44255;49.244;7.726;2023-02-21T09:41:13;98736.69;;;4.78;56.83
58467;BME280;44255;49.244;7.726;2023-02-21T09:43:42;98731.44;;;4.53;58.52
58467;BME280;44255;49.244;7.726;2023-02-21T09:46:20;98721.56;;;5.00;57.70
58467;BME280;44255;49.244;7.726;2023-02-21T09:48:46;98724.47;;;4.95;58.04
58467;BME280;44255;49.244;7.726;2023-02-21T09:51:12;98721.88;;;5.14;58.16
58467;BME280;44255;49.244;7.726;2023-02-21T09:53:42;98719.97;;;4.95;58.47
58467;BME280;44255;49.244;7.726;2023-02-21T09:56:17;98712.06;;;5.15;57.74
58467;BME280;44255;49.244;7.726;2023-02-21T09:58:45;98716.31;;;4.98;58.43
58467;BME280;44255;49.244;7.726;2023-02-21T10:04:45;98713.63;;;5.63;56.45
58467;BME280;44255;49.244;7.726;2023-02-21T10:07:25;98705.66;;;5.62;55.79
58467;BME280;44255;49.244;7.726;2023-02-21T10:10:05;98702.53;;;5.52;55.80
58467;BME280;44255;49.244;7.726;2023-02-21T10:12:39;98701.06;;;5.65;55.12
58467;BME280;44255;49.244;7.726;2023-02-21T10:20:38;98700.72;;;6.32;53.26
58467;BME280;44255;49.244;7.726;2023-02-21T10:23:13;98695.72;;;6.25;53.20
58467;BME280;44255;49.244;7.726;2023-02-21T10:25:42;98691.59;;;6.56;53.19
58467;BME280;44255;49.244;7.726;2023-02-21T10:28:15;98690.38;;;6.25;53.74
58467;BME280;44255;49.244;7.726;2023-02-21T10:30:41;98690.81;;;6.34;53.21
58467;BME280;44255;49.244;7.726;2023-02-21T10:33:07;98684.38;;;6.77;52.60
58467;BME280;44255;49.244;7.726;2023-02-21T10:35:33;98685.03;;;6.44;52.89
58467;BME280;44255;49.244;7.726;2023-02-21T10:38:00;98689.56;;;6.61;52.34
58467;BME280;44255;49.244;7.726;2023-02-21T10:40:42;98683.72;;;6.72;51.04
58467;BME280;44255;49.244;7.726;2023-02-21T10:43:12;98687.63;;;6.84;52.25
58467;BME280;44255;49.244;7.726;2023-02-21T10:48:24;98678.31;;;7.28;49.16
58467;BME280;44255;49.244;7.726;2023-02-21T10:53:33;98674.66;;;7.64;48.85
58467;BME280;44255;49.244;7.726;2023-02-21T10:56:24;98661.03;;;7.85;48.70
58467;BME280;44255;49.244;7.726;2023-02-21T10:59:05;98658.94;;;7.74;48.20
58467;BME280;44255;49.244;7.726;2023-02-21T11:01:35;98663.03;;;7.63;48.93
58467;BME280;44255;49.244;7.726;2023-02-21T11:04:04;98650.31;;;7.85;47.00
58467;BME280;44255;49.244;7.726;2023-02-21T11:06:32;98654.09;;;7.81;46.44
58467;BME280;44255;49.244;7.726;2023-02-21T11:08:58;98648.41;;;7.87;46.77
58467;BME280;44255;49.244;7.726;2023-02-21T11:14:19;98631.53;;;8.18;45.99
58467;BME280;44255;49.244;7.726;2023-02-21T11:17:15;98626.50;;;8.12;45.60
58467;BME280;44255;49.244;7.726;2023-02-21T11:19:41;98621.13;;;7.96;44.65
58467;BME280;44255;49.244;7.726;2023-02-21T11:22:07;98620.94;;;8.15;44.42
58467;BME280;44255;49.244;7.726;2023-02-21T11:24:46;98621.38;;;8.40;43.92
58467;BME280;44255;49.244;7.726;2023-02-21T11:27:13;98616.34;;;8.17;43.99
58467;BME280;44255;49.244;7.726;2023-02-21T11:29:42;98613.66;;;8.49;44.00
58467;BME280;44255;49.244;7.726;2023-02-21T11:32:21;98611.59;;;9.17;43.14
58467;BME280;44255;49.244;7.726;2023-02-21T11:34:48;98608.94;;;8.85;42.76
58467;BME280;44255;49.244;7.726;2023-02-21T11:37:14;98606.84;;;8.90;41.99
58467;BME280;44255;49.244;7.726;2023-02-21T11:39:40;98604.44;;;8.86;41.20
58467;BME280;44255;49.244;7.726;2023-02-21T11:45:03;98593.13;;;9.56;39.74
58467;BME280;44255;49.244;7.726;2023-02-21T11:47:56;98588.19;;;9.92;38.97
58467;BME280;44255;49.244;7.726;2023-02-21T11:50:29;98584.56;;;9.49;40.07
58467;BME280;44255;49.244;7.726;2023-02-21T11:53:13;98572.28;;;10.31;38.67
58467;BME280;44255;49.244;7.726;2023-02-21T11:55:46;98575.00;;;10.16;38.89
58467;BME280;44255;49.244;7.726;2023-02-21T12:01:19;98561.94;;;10.52;38.44
58467;BME280;44255;49.244;7.726;2023-02-21T12:06:40;98558.66;;;10.47;37.69
58467;BME280;44255;49.244;7.726;2023-02-21T12:09:32;98565.63;;;10.37;36.79
58467;BME280;44255;49.244;7.726;2023-02-21T12:15:18;98540.88;;;11.51;36.53
58467;BME280;44255;49.244;7.726;2023-02-21T12:18:07;98545.34;;;10.99;36.75
58467;BME280;44255;49.244;7.726;2023-02-21T12:21:20;98528.13;;;11.53;36.42
58467;BME280;44255;49.244;7.726;2023-02-21T12:24:13;98522.72;;;12.16;35.23
58467;BME280;44255;49.244;7.726;2023-02-21T12:27:00;98526.03;;;11.83;35.23
58467;BME280;44255;49.244;7.726;2023-02-21T12:38:38;98494.41;;;19.92;23.78
58467;BME280;44255;49.244;7.726;2023-02-21T12:41:28;98477.88;;;21.12;22.62
58467;BME280;44255;49.244;7.726;2023-02-21T12:44:13;98479.22;;;21.16;22.69
58467;BME280;44255;49.244;7.726;2023-02-21T12:46:57;98483.81;;;19.54;24.25
58467;BME280;44255;49.244;7.726;2023-02-21T12:52:22;98464.38;;;22.38;21.61
58467;BME280;44255;49.244;7.726;2023-02-21T12:57:31;98464.06;;;23.56;19.77
58467;BME280;44255;49.244;7.726;2023-02-21T13:00:05;98459.59;;;22.00;20.80
58467;BME280;44255;49.244;7.726;2023-02-21T13:02:55;98449.41;;;21.46;21.27
58467;BME280;44255;49.244;7.726;2023-02-21T13:05:35;98442.19;;;22.48;20.47
58467;BME280;44255;49.244;7.726;2023-02-21T13:08:16;98443.22;;;23.08;20.21
58467;BME280;44255;49.244;7.726;2023-02-21T13:11:17;98434.59;;;22.97;19.91
58467;BME280;44255;49.244;7.726;2023-02-21T13:13:44;98439.59;;;23.46;19.60
58467;BME280;44255;49.244;7.726;2023-02-21T13:16:11;98440.34;;;23.25;19.70
58467;BME280;44255;49.244;7.726;2023-02-21T13:23:58;98429.72;;;23.22;19.96
58467;BME280;44255;49.244;7.726;2023-02-21T13:29:38;98418.38;;;22.87;20.19
58467;BME280;44255;49.244;7.726;2023-02-21T13:34:36;98425.09;;;22.14;20.74
58467;BME280;44255;49.244;7.726;2023-02-21T13:37:05;98410.44;;;22.92;20.34
58467;BME280;44255;49.244;7.726;2023-02-21T13:39:32;98405.78;;;24.56;19.07
58467;BME280;44255;49.244;7.726;2023-02-21T13:42:05;98400.44;;;24.11;19.42
58467;BME280;44255;49.244;7.726;2023-02-21T13:44:41;98390.16;;;22.93;20.21
58467;BME280;44255;49.244;7.726;2023-02-21T14:02:54;98377.22;;;23.32;19.70
58467;BME280;44255;49.244;7.726;2023-02-21T14:05:20;98377.69;;;24.39;19.61
58467;BME280;44255;49.244;7.726;2023-02-21T14:08:01;98373.66;;;24.42;19.02
58467;BME280;44255;49.244;7.726;2023-02-21T14:10:40;98371.31;;;24.67;18.46
58467;BME280;44255;49.244;7.726;2023-02-21T14:13:19;98372.56;;;23.02;19.76
58467;BME280;44255;49.244;7.726;2023-02-21T14:15:46;98374.72;;;22.92;20.01
58467;BME280;44255;49.244;7.726;2023-02-21T14:18:16;98370.00;;;23.46;19.34
58467;BME280;44255;49.244;7.726;2023-02-21T14:20:46;98379.69;;;21.80;20.54
58467;BME280;44255;49.244;7.726;2023-02-21T14:23:16;98375.94;;;22.04;20.91
58467;BME280;44255;49.244;7.726;2023-02-21T14:25:54;98367.50;;;23.06;19.34
58467;BME280;44255;49.244;7.726;2023-02-21T14:31:13;98376.63;;;24.03;18.71
58467;BME280;44255;49.244;7.726;2023-02-21T14:33:38;98372.59;;;24.43;18.73
58467;BME280;44255;49.244;7.726;2023-02-21T14:36:06;98368.38;;;24.40;18.46
58467;BME280;44255;49.244;7.726;2023-02-21T14:38:38;98367.81;;;25.02;17.76
58467;BME280;44255;49.244;7.726;2023-02-21T14:41:20;98368.16;;;22.40;19.98
58467;BME280;44255;49.244;7.726;2023-02-21T14:44:01;98382.06;;;21.35;21.15
58467;BME280;44255;49.244;7.726;2023-02-21T14:49:49;98357.25;;;22.00;21.00
58467;BME280;44255;49.244;7.726;2023-02-21T14:52:42;98355.34;;;22.32;21.54
58467;BME280;44255;49.244;7.726;2023-02-21T14:55:30;98345.34;;;22.77;21.65
58467;BME280;44255;49.244;7.726;2023-02-21T14:58:14;98344.41;;;23.30;20.77
58467;BME280;44255;49.244;7.726;2023-02-21T15:03:50;98337.88;;;25.96;18.20
58467;BME280;44255;49.244;7.726;2023-02-21T15:06:20;98343.38;;;24.42;18.51
58467;BME280;44255;49.244;7.726;2023-02-21T15:08:48;98342.72;;;24.18;19.29
58467;BME280;44255;49.244;7.726;2023-02-21T15:11:24;98331.06;;;23.94;19.43
58467;BME280;44255;49.244;7.726;2023-02-21T15:14:24;98332.75;;;22.68;20.38
58467;BME280;44255;49.244;7.726;2023-02-21T15:16:54;98340.84;;;22.23;20.70
58467;BME280;44255;49.244;7.726;2023-02-21T15:19:32;98331.91;;;22.98;20.96
58467;BME280;44255;49.244;7.726;2023-02-21T15:22:25;98334.44;;;22.84;20.29
58467;BME280;44255;49.244;7.726;2023-02-21T15:25:12;98334.69;;;22.59;20.55
58467;BME280;44255;49.244;7.726;2023-02-21T15:30:14;98333.28;;;20.32;22.49
58467;BME280;44255;49.244;7.726;2023-02-21T15:32:40;98335.09;;;19.90;23.29
58467;BME280;44255;49.244;7.726;2023-02-21T15:35:09;98331.38;;;18.26;24.83
58467;BME280;44255;49.244;7.726;2023-02-21T15:37:38;98336.78;;;18.62;24.79
58467;BME280;44255;49.244;7.726;2023-02-21T15:40:12;98333.22;;;18.07;25.32
58467;BME280;44255;49.244;7.726;2023-02-21T15:42:40;98335.56;;;17.84;25.86
58467;BME280;44255;49.244;7.726;2023-02-21T15:45:10;98338.53;;;17.91;25.83
58467;BME280;44255;49.244;7.726;2023-02-21T15:47:39;98339.72;;;17.32;27.31
58467;BME280;44255;49.244;7.726;2023-02-21T15:52:41;98331.94;;;17.19;27.81
58467;BME280;44255;49.244;7.726;2023-02-21T15:57:46;98331.78;;;16.73;28.87
58467;BME280;44255;49.244;7.726;2023-02-21T16:02:41;98325.41;;;15.95;30.79
58467;BME280;44255;49.244;7.726;2023-02-21T16:05:25;98323.56;;;15.76;31.44
58467;BME280;44255;49.244;7.726;2023-02-21T16:07:51;98322.56;;;15.67;31.28
58467;BME280;44255;49.244;7.726;2023-02-21T16:10:22;98315.84;;;15.21;32.30
58467;BME280;44255;49.244;7.726;2023-02-21T16:12:55;98317.84;;;15.19;32.44
58467;BME280;44255;49.244;7.726;2023-02-21T16:17:54;98313.50;;;14.96;32.68
58467;BME280;44255;49.244;7.726;2023-02-21T16:20:24;98322.88;;;14.82;33.25
58467;BME280;44255;49.244;7.726;2023-02-21T16:28:34;98318.38;;;14.08;35.00
58467;BME280;44255;49.244;7.726;2023-02-21T16:31:02;98311.94;;;13.87;35.99
58467;BME280;44255;49.244;7.726;2023-02-21T16:33:28;98312.38;;;13.71;35.35
58467;BME280;44255;49.244;7.726;2023-02-21T16:35:54;98308.97;;;13.58;35.50
58467;BME280;44255;49.244;7.726;2023-02-21T16:38:21;98319.56;;;13.38;35.97
58467;BME280;44255;49.244;7.726;2023-02-21T16:40:47;98308.69;;;13.06;36.64
58467;BME280;44255;49.244;7.726;2023-02-21T16:43:21;98316.56;;;12.86;37.60
58467;BME280;44255;49.244;7.726;2023-02-21T16:45:48;98313.44;;;12.68;38.12
58467;BME280;44255;49.244;7.726;2023-02-21T16:48:18;98319.00;;;12.66;38.08
58467;BME280;44255;49.244;7.726;2023-02-21T16:50:47;98319.09;;;12.42;38.19
58467;BME280;44255;49.244;7.726;2023-02-21T16:53:13;98317.34;;;12.29;38.45
58467;BME280;44255;49.244;7.726;2023-02-21T16:55:39;98318.97;;;11.96;39.09
58467;BME280;44255;49.244;7.726;2023-02-21T16:58:25;98318.88;;;11.85;39.29
58467;BME280;44255;49.244;7.726;2023-02-21T17:00:54;98317.56;;;11.66;39.78
58467;BME280;44255;49.244;7.726;2023-02-21T17:03:20;98318.53;;;11.41;40.25
58467;BME280;44255;49.244;7.726;2023-02-21T17:05:45;98327.38;;;11.43;40.09
58467;BME280;44255;49.244;7.726;2023-02-21T17:08:11;98321.06;;;11.31;40.55
58467;BME280;44255;49.244;7.726;2023-02-21T17:10:37;98323.69;;;11.19;40.50
58467;BME280;44255;49.244;7.726;2023-02-21T17:13:02;98330.09;;;10.80;41.10
58467;BME280;44255;49.244;7.726;2023-02-21T17:15:28;98333.84;;;10.90;40.84
58467;BME280;44255;49.244;7.726;2023-02-21T17:17:53;98323.06;;;10.90;40.87
58467;BME280;44255;49.244;7.726;2023-02-21T17:20:18;98333.63;;;10.80;40.98
58467;BME280;44255;49.244;7.726;2023-02-21T17:22:44;98324.84;;;10.52;41.04
58467;BME280;44255;49.244;7.726;2023-02-21T17:25:10;98327.50;;;10.39;41.50
58467;BME280;44255;49.244;7.726;2023-02-21T17:27:36;98331.72;;;10.43;41.52
58467;BME280;44255;49.244;7.726;2023-02-21T17:30:03;98336.75;;;10.22;42.12
58467;BME280;44255;49.244;7.726;2023-02-21T17:32:28;98336.31;;;10.15;42.12
58467;BME280;44255;49.244;7.726;2023-02-21T17:34:54;98340.91;;;10.00;42.56
58467;BME280;44255;49.244;7.726;2023-02-21T17:37:19;98346.13;;;9.89;42.69
58467;BME280;44255;49.244;7.726;2023-02-21T17:39:45;98345.81;;;9.81;42.67
58467;BME280;44255;49.244;7.726;2023-02-21T17:42:10;98338.13;;;9.74;42.59
58467;BME280;44255;49.244;7.726;2023-02-21T17:44:35;98340.06;;;9.72;42.38
58467;BME280;44255;49.244;7.726;2023-02-21T17:47:02;98344.72;;;9.56;42.69
58467;BME280;44255;49.244;7.726;2023-02-21T17:49:31;98347.84;;;9.49;42.99
58467;BME280;44255;49.244;7.726;2023-02-21T17:51:57;98345.72;;;9.40;43.41
58467;BME280;44255;49.244;7.726;2023-02-21T17:54:23;98354.56;;;9.42;42.85
58467;BME280;44255;49.244;7.726;2023-02-21T17:56:49;98356.16;;;9.17;43.37
58467;BME280;44255;49.244;7.726;2023-02-21T17:59:15;98358.56;;;9.08;43.84
58467;BME280;44255;49.244;7.726;2023-02-21T18:01:40;98355.88;;;9.08;43.53
58467;BME280;44255;49.244;7.726;2023-02-21T18:04:06;98360.03;;;8.99;43.59
58467;BME280;44255;49.244;7.726;2023-02-21T18:06:32;98361.53;;;8.88;43.87
58467;BME280;44255;49.244;7.726;2023-02-21T18:08:57;98360.75;;;8.86;43.93
58467;BME280;44255;49.244;7.726;2023-02-21T18:11:23;98368.81;;;8.72;44.12
58467;BME280;44255;49.244;7.726;2023-02-21T18:13:49;98356.63;;;8.66;44.29
58467;BME280;44255;49.244;7.726;2023-02-21T18:16:15;98364.38;;;8.56;44.02
58467;BME280;44255;49.244;7.726;2023-02-21T18:18:40;98361.31;;;8.48;43.94
58467;BME280;44255;49.244;7.726;2023-02-21T18:21:07;98359.00;;;8.42;44.16
58467;BME280;44255;49.244;7.726;2023-02-21T18:23:33;98363.91;;;8.35;44.26
58467;BME280;44255;49.244;7.726;2023-02-21T18:26:00;98356.97;;;8.31;44.58
58467;BME280;44255;49.244;7.726;2023-02-21T18:28:27;98358.19;;;8.25;44.55
58467;BME280;44255;49.244;7.726;2023-02-21T18:30:53;98356.97;;;8.31;44.55
58467;BME280;44255;49.244;7.726;2023-02-21T18:33:21;98355.13;;;8.17;44.58
58467;BME280;44255;49.244;7.726;2023-02-21T18:35:47;98350.03;;;8.12;44.15
58467;BME280;44255;49.244;7.726;2023-02-21T18:38:12;98354.16;;;7.71;45.15
58467;BME280;44255;49.244;7.726;2023-02-21T18:40:40;98359.88;;;7.65;45.32
58467;BME280;44255;49.244;7.726;2023-02-21T18:45:44;98356.53;;;7.45;45.80
58467;BME280;44255;49.244;7.726;2023-02-21T18:48:10;98358.78;;;7.37;45.82
58467;BME280;44255;49.244;7.726;2023-02-21T18:50:35;98360.00;;;7.47;45.30
58467;BME280;44255;49.244;7.726;2023-02-21T18:53:00;98360.09;;;7.30;45.56
58467;BME280;44255;49.244;7.726;2023-02-21T18:55:28;98357.47;;;7.12;45.74
58467;BME280;44255;49.244;7.726;2023-02-21T18:57:54;98357.66;;;7.25;45.30
58467;BME280;44255;49.244;7.726;2023-02-21T19:00:21;98364.22;;;7.19;45.49
58467;BME280;44255;49.244;7.726;2023-02-21T19:02:47;98355.56;;;7.14;45.65
58467;BME280;44255;49.244;7.726;2023-02-21T19:05:18;98351.34;;;7.10;45.71
58467;BME280;44255;49.244;7.726;2023-02-21T19:07:44;98353.94;;;7.12;45.62
58467;BME280;44255;49.244;7.726;2023-02-21T19:10:11;98346.16;;;7.07;45.41
58467;BME280;44255;49.244;7.726;2023-02-21T19:12:36;98346.75;;;7.12;45.34
58467;BME280;44255;49.244;7.726;2023-02-21T19:15:02;98347.78;;;6.93;45.76
58467;BME280;44255;49.244;7.726;2023-02-21T19:17:28;98352.16;;;6.78;45.92
58467;BME280;44255;49.244;7.726;2023-02-21T19:19:53;98352.63;;;6.87;45.41
58467;BME280;44255;49.244;7.726;2023-02-21T19:22:19;98354.16;;;6.75;45.29
58467;BME280;44255;49.244;7.726;2023-02-21T19:24:44;98350.97;;;6.67;46.05
58467;BME280;44255;49.244;7.726;2023-02-21T19:27:09;98351.47;;;6.57;46.10